Tinker AFB, Oklahoma
Current Conditions -  °F | °C
As of 1:58 PM on Friday 31 Oct 2014 (Local Time) from KTIK Reporting Station
Clear Clear  
Wind Chill: 58°   Ceiling: Unl
Heat Index: 58°   Visibility: 9mi
Dew Point: 34°   Wind: 12mph
Humidity: 40%   Direction: 10°N
Pressure: 30.39"   Gusts: 18mph
Location:  35.4189°N, 97.3941°W
Report Text: KTIK 311858Z AUTO 01010G16KT 9SM CLR 14/01 A3039 RMK AO2 SLP297 T01440010 $
Loading
Personal Weather Stations






























Interactive Weather Map
Tropical Storm Tracking
New forecast layout! Learn more

10-Day Weather Forecast

Advertisements
Track Severe Weather on mobile